Time;durP1;ratioP1;P1;durP2;ratioP2;P2;SDS_P1;SDS_P2;PMS_P1;PMS_P2;Temp;Humidity;BMP_temperature;BMP_pressure;BME280_temperature;BME280_humidity;BME280_pressure;Samples;Min_cycle;Max_cycle;Signal;HPM_P1;HPM_P2
2023/11/24 00:05:16;;;;;;;9.48;6.57;;;;;;;16.12;100.00;101059.97;10436230;28;20049;-85
2023/11/24 00:10:39;;;;;;;9.68;5.82;;;;;;;16.15;100.00;101059.94;10441991;28;20129;-84
2023/11/24 00:16:04;;;;;;;14.65;6.68;;;;;;;16.07;100.00;101066.19;10447412;28;20057;-84
2023/11/24 00:21:29;;;;;;;12.05;6.20;;;;;;;15.87;100.00;101059.13;10449771;28;20057;-84
2023/11/24 00:26:53;;;;;;;14.98;6.22;;;;;;;15.76;100.00;101060.91;10434142;28;20432;-83
2023/11/24 00:32:16;;;;;;;12.30;5.80;;;;;;;15.53;100.00;101073.34;10449480;28;20052;-84
2023/11/24 00:37:41;;;;;;;8.65;6.18;;;;;;;15.35;100.00;101081.28;10449892;28;20049;-83
2023/11/24 00:43:05;;;;;;;9.73;6.32;;;;;;;15.26;100.00;101079.47;10435420;28;20049;-83
2023/11/24 00:48:29;;;;;;;10.02;6.43;;;;;;;15.34;100.00;101068.84;10435348;28;20041;-83
2023/11/24 00:53:55;;;;;;;12.68;6.03;;;;;;;15.79;100.00;101076.00;10448534;28;20048;-84
2023/11/24 00:59:18;;;;;;;11.43;6.45;;;;;;;15.69;100.00;101059.13;10434367;28;20136;-83
2023/11/24 01:04:42;;;;;;;14.13;7.25;;;;;;;15.51;100.00;101059.09;10448513;28;20052;-83
2023/11/24 01:10:09;;;;;;;12.57;5.70;;;;;;;15.47;100.00;101055.56;10428942;28;20041;-83
2023/11/24 01:15:36;;;;;;;17.42;6.22;;;;;;;15.38;100.00;101059.97;10408249;28;20044;-83
2023/11/24 01:20:59;;;;;;;12.13;5.38;;;;;;;15.56;100.00;101054.69;10449408;28;20045;-85
2023/11/24 01:26:26;;;;;;;8.05;5.63;;;;;;;15.67;100.00;101044.94;10434999;28;20068;-84
2023/11/24 01:31:50;;;;;;;7.75;5.03;;;;;;;15.72;100.00;101039.63;10447856;28;20060;-84
2023/11/24 01:37:14;;;;;;;11.65;4.97;;;;;;;15.74;100.00;101030.75;10435746;28;20515;-82
2023/11/24 01:42:39;;;;;;;13.25;6.35;;;;;;;15.74;100.00;101025.44;10440442;28;20044;-83
2023/11/24 01:48:03;;;;;;;13.68;6.28;;;;;;;15.54;100.00;101030.78;10440880;28;20063;-81
2023/11/24 01:53:26;;;;;;;12.00;5.78;;;;;;;15.54;100.00;101027.22;10453695;28;20139;-83
2023/11/24 01:58:53;;;;;;;9.65;5.35;;;;;;;15.50;100.00;101028.94;10436567;28;20048;-82
2023/11/24 02:04:17;;;;;;;14.50;6.97;;;;;;;15.57;100.00;101032.53;10430332;28;20181;-81
2023/11/24 02:09:41;;;;;;;11.75;6.35;;;;;;;15.93;100.00;101021.84;10453467;28;20052;-82
2023/11/24 02:15:09;;;;;;;9.00;5.60;;;;;;;16.25;100.00;101007.53;10466558;28;20044;-83
2023/11/24 02:20:33;;;;;;;14.50;6.43;;;;;;;16.47;100.00;100995.03;10434296;28;20137;-82
2023/11/24 02:25:58;;;;;;;10.85;6.32;;;;;;;16.42;100.00;100981.69;10440220;28;20044;-82
2023/11/24 02:31:22;;;;;;;21.38;6.78;;;;;;;16.37;100.00;100970.19;10439273;28;20114;-80
2023/11/24 02:36:46;;;;;;;10.35;6.18;;;;;;;16.31;100.00;100949.78;10438730;28;20660;-82
2023/11/24 02:42:10;;;;;;;13.98;6.70;;;;;;;16.08;100.00;100943.66;10447494;28;20347;-82
2023/11/24 02:47:33;;;;;;;9.50;6.38;;;;;;;15.82;100.00;100948.19;10452021;28;20489;-83
2023/11/24 02:52:57;;;;;;;14.82;6.78;;;;;;;15.58;100.00;100948.25;10452075;28;20064;-81
2023/11/24 02:58:22;;;;;;;9.70;5.28;;;;;;;15.76;100.00;100932.22;10451132;28;20037;-81
2023/11/24 03:03:46;;;;;;;8.07;4.57;;;;;;;16.03;100.00;100920.59;10450336;28;20052;-84
2023/11/24 03:09:10;;;;;;;11.90;4.40;;;;;;;16.48;100.00;100919.47;10438356;28;20056;-84
2023/11/24 03:14:35;;;;;;;11.05;4.95;;;;;;;16.71;100.00;100939.81;10438101;28;20045;-84
2023/11/24 03:20:00;;;;;;;10.68;4.50;;;;;;;16.86;100.00;100938.84;10451730;28;20061;-81
2023/11/24 03:25:23;;;;;;;6.50;3.92;;;;;;;17.12;100.00;100941.28;10437362;28;20044;-82
2023/11/24 03:30:48;;;;;;;8.70;4.65;;;;;;;17.22;100.00;100945.66;10451226;28;20426;-85
2023/11/24 03:36:12;;;;;;;6.97;4.32;;;;;;;17.28;100.00;100940.25;10437719;28;20057;-85
2023/11/24 03:41:35;;;;;;;10.68;4.80;;;;;;;17.44;100.00;100933.00;10442201;28;20497;-85
2023/11/24 03:47:00;;;;;;;11.40;4.68;;;;;;;17.50;100.00;100939.16;10464799;28;20137;-85
2023/11/24 03:52:23;;;;;;;13.35;5.03;;;;;;;17.35;100.00;100941.06;10448981;28;20501;-79
2023/11/24 03:57:46;;;;;;;16.40;5.43;;;;;;;17.49;100.00;100949.84;10434943;28;20378;-83
2023/11/24 04:03:11;;;;;;;13.77;5.22;;;;;;;17.61;100.00;100940.84;10447546;28;20065;-83
2023/11/24 04:08:35;;;;;;;13.02;5.10;;;;;;;17.62;100.00;100937.28;10435751;28;20037;-83
2023/11/24 04:13:58;;;;;;;10.95;5.15;;;;;;;17.67;100.00;100948.81;10435603;28;20041;-82
2023/11/24 04:19:23;;;;;;;22.52;12.60;;;;;;;17.70;100.00;100952.34;10414337;28;20055;-82
2023/11/24 04:24:47;;;;;;;16.17;6.32;;;;;;;17.66;100.00;100945.25;10449413;28;20041;-85
2023/11/24 04:30:12;;;;;;;14.38;6.10;;;;;;;17.64;100.00;100943.50;10449779;28;20131;-84
2023/11/24 04:35:36;;;;;;;8.20;5.53;;;;;;;17.66;100.00;100939.00;10462164;28;20505;-85
2023/11/24 04:41:01;;;;;;;11.00;6.72;;;;;;;17.57;100.00;100939.97;10449857;28;20136;-86
2023/11/24 04:46:25;;;;;;;6.75;4.45;;;;;;;17.46;100.00;100937.41;10449143;28;20041;-90
2023/11/24 04:51:50;;;;;;;7.15;4.20;;;;;;;17.41;100.00;100947.25;10435176;28;20060;-85
2023/11/24 04:57:14;;;;;;;7.57;4.03;;;;;;;17.37;100.00;100953.53;10448613;28;20122;-84
2023/11/24 05:02:39;;;;;;;12.32;4.78;;;;;;;17.20;100.00;100943.91;10446284;28;20079;-82
2023/11/24 05:08:05;;;;;;;11.27;4.82;;;;;;;17.04;100.00;100940.47;10399710;28;20057;-83
2023/11/24 05:13:28;;;;;;;8.30;4.88;;;;;;;17.04;100.00;100943.13;10454568;28;20397;-83
2023/11/24 05:18:52;;;;;;;9.80;5.05;;;;;;;17.06;100.00;100941.34;10454257;28;20078;-83
2023/11/24 05:24:17;;;;;;;27.17;17.88;;;;;;;17.14;100.00;100935.03;10441249;28;20047;-83
2023/11/24 05:29:41;;;;;;;9.88;7.28;;;;;;;17.46;100.00;100925.84;10457121;28;20431;-83
2023/11/24 05:35:05;;;;;;;7.20;5.55;;;;;;;17.90;100.00;100931.63;10454839;28;20378;-83
2023/11/24 05:40:30;;;;;;;8.73;4.65;;;;;;;18.33;100.00;100923.94;10455888;28;20143;-83
2023/11/24 05:45:53;;;;;;;13.70;6.22;;;;;;;18.80;100.00;100925.09;10442359;28;20075;-83
2023/11/24 05:51:17;;;;;;;11.93;7.03;;;;;;;19.37;100.00;100906.28;10441550;28;20511;-81
2023/11/24 05:56:41;;;;;;;13.18;8.80;;;;;;;;;;10455216;28;20044;-83
2023/11/24 06:02:05;;;;;;;10.93;4.97;;;;;;;24.87;100.00;100888.25;10466924;28;20460;-82
2023/11/24 06:07:28;;;;;;;6.78;4.25;;;;;;;26.00;100.00;100889.59;10454118;28;20134;-82
2023/11/24 06:12:53;;;;;;;8.23;3.40;;;;;;;26.53;98.63;100888.94;10453437;28;20714;-82
2023/11/24 06:18:16;;;;;;;6.95;2.80;;;;;;;26.27;97.65;100882.06;10439854;28;20076;-82
2023/11/24 06:23:40;;;;;;;6.72;2.80;;;;;;;25.97;92.98;100880.75;10439021;28;20083;-81
2023/11/24 06:29:05;;;;;;;6.07;4.25;;;;;;;23.52;100.00;100871.00;10439343;28;20168;-81
2023/11/24 06:34:28;;;;;;;53.10;47.30;;;;;;;22.38;100.00;100864.03;10437956;28;20056;-81
2023/11/24 06:39:51;;;;;;;45.15;34.85;;;;;;;22.04;100.00;100856.13;10447406;28;20058;-82
2023/11/24 06:45:17;;;;;;;11.68;7.25;;;;;;;21.81;100.00;100854.94;10453306;28;20140;-81
2023/11/24 06:50:40;;;;;;;9.13;6.25;;;;;;;21.71;100.00;100861.53;10451644;28;20057;-80
2023/11/24 06:56:04;;;;;;;10.70;6.28;;;;;;;21.56;100.00;100861.94;10451115;28;20052;-81
2023/11/24 07:01:31;;;;;;;23.80;14.65;;;;;;;21.35;100.00;100855.38;10447789;28;20413;-82
2023/11/24 07:06:54;;;;;;;51.07;43.73;;;;;;;21.06;100.00;100857.91;10450961;28;20052;-81
2023/11/24 07:12:19;;;;;;;9.50;5.65;;;;;;;20.52;100.00;100862.84;10451278;28;20060;-82
2023/11/24 07:17:45;;;;;;;28.35;23.67;;;;;;;20.18;100.00;100863.59;10450190;28;20430;-82
2023/11/24 07:23:08;;;;;;;13.18;8.43;;;;;;;19.37;100.00;100855.41;10449806;28;20064;-81
2023/11/24 07:28:31;;;;;;;82.45;64.70;;;;;;;19.21;100.00;100864.66;10434662;28;20140;-79
2023/11/24 07:33:56;;;;;;;78.50;62.13;;;;;;;19.56;100.00;100859.53;10448726;28;20396;-78
2023/11/24 07:39:20;;;;;;;41.53;33.83;;;;;;;19.90;100.00;100843.66;10440019;28;20076;-79
2023/11/24 07:44:44;;;;;;;24.70;18.25;;;;;;;20.12;100.00;100853.00;10433337;28;20095;-78
2023/11/24 07:50:10;;;;;;;57.58;37.53;;;;;;;20.16;100.00;100846.63;10430679;28;20060;-79
2023/11/24 07:55:33;;;;;;;68.70;48.45;;;;;;;20.21;100.00;100851.91;10448134;28;20049;-79
2023/11/24 08:00:57;;;;;;;55.17;37.85;;;;;;;20.27;100.00;100843.75;10432985;28;20041;-81
2023/11/24 08:06:22;;;;;;;13.68;10.23;;;;;;;20.17;100.00;100834.13;10425088;28;20059;-77
2023/11/24 08:11:49;;;;;;;10.13;4.75;;;;;;;20.20;100.00;100820.66;10428896;28;20047;-81
2023/11/24 08:17:13;;;;;;;13.18;4.97;;;;;;;20.35;100.00;100820.31;10446586;28;20053;-80
2023/11/24 08:22:38;;;;;;;7.60;4.03;;;;;;;20.47;100.00;100812.00;10444765;28;20051;-81
2023/11/24 08:28:01;;;;;;;7.32;4.60;;;;;;;20.42;100.00;100800.47;10454152;28;20045;-82
2023/11/24 08:33:24;;;;;;;8.13;4.50;;;;;;;20.65;100.00;100787.41;10443785;28;20118;-81
2023/11/24 08:38:50;;;;;;;6.32;3.88;;;;;;;20.77;100.00;100786.19;10445822;28;20067;-83
2023/11/24 08:44:13;;;;;;;7.40;4.40;;;;;;;21.20;100.00;100777.88;10448910;28;20075;-83
2023/11/24 08:49:37;;;;;;;7.40;4.47;;;;;;;21.56;100.00;100767.03;10449929;28;20056;-81
2023/11/24 08:55:02;;;;;;;9.20;4.80;;;;;;;21.66;100.00;100753.28;10441280;28;20053;-83
2023/11/24 09:00:27;;;;;;;5.65;3.70;;;;;;;21.68;100.00;100745.16;10455320;28;20124;-84
2023/11/24 09:05:52;;;;;;;9.95;5.35;;;;;;;21.60;100.00;100736.44;10440482;28;20048;-82
2023/11/24 09:11:17;;;;;;;10.35;4.90;;;;;;;21.46;100.00;100728.84;10440600;28;20060;-83
2023/11/24 09:16:41;;;;;;;7.75;6.25;;;;;;;21.77;100.00;100710.84;10441808;28;20563;-82
2023/11/24 09:22:06;;;;;;;7.95;4.22;;;;;;;22.58;100.00;100681.25;10455906;28;20118;-83
2023/11/24 09:27:34;;;;;;;9.90;3.20;;;;;;;23.37;100.00;100663.09;10457861;28;20417;-83
2023/11/24 09:32:57;;;;;;;7.90;4.55;;;;;;;23.76;100.00;100660.66;10455755;28;20068;-84
2023/11/24 09:38:21;;;;;;;16.00;12.95;;;;;;;24.09;100.00;100657.56;10442034;28;20037;-84
2023/11/24 09:43:48;;;;;;;17.17;11.50;;;;;;;24.51;100.00;100661.13;10455630;28;20128;-84
2023/11/24 09:49:17;;;;;;;26.08;20.38;;;;;;;25.72;96.83;100643.00;10436919;28;20057;-85
2023/11/24 09:54:43;;;;;;;15.75;13.45;;;;;;;26.57;85.44;100639.56;10435154;28;20140;-82
2023/11/24 10:00:15;;;;;;;15.20;12.02;;;;;;;27.16;78.46;100630.06;10438272;28;20064;-81
2023/11/24 10:05:40;;;;;;;7.40;3.80;;;;;;;27.38;74.63;100613.47;10446255;28;20051;-82
2023/11/24 10:11:13;;;;;;;5.72;3.47;;;;;;;27.38;75.68;100599.91;10450282;28;20049;-87
2023/11/24 10:16:41;;;;;;;13.32;8.40;;;;;;;27.16;80.56;100596.66;10440658;28;20124;-84
2023/11/24 10:22:05;;;;;;;10.02;8.52;;;;;;;27.68;74.46;100579.22;10445352;28;20103;-85
2023/11/24 10:27:42;;;;;;;5.88;2.30;;;;;;;29.03;57.39;100563.75;10423844;28;20056;-88
2023/11/24 10:33:08;;;;;;;;;;;;;;;31.11;47.21;100574.03;10451964;28;20044;-88
2023/11/24 10:38:32;;;;;;;3.22;1.70;;;;;;;32.05;40.13;100567.81;10454577;28;19960;-87
2023/11/24 10:43:58;;;;;;;3.92;1.98;;;;;;;30.29;41.87;100572.53;10453195;28;20076;-86
2023/11/24 10:49:31;;;;;;;3.90;2.30;;;;;;;28.55;45.14;100561.28;10446838;28;20102;-87
2023/11/24 10:55:01;;;;;;;4.78;2.40;;;;;;;26.27;52.58;100543.69;10449521;28;20080;-87
2023/11/24 11:00:27;;;;;;;6.80;2.78;;;;;;;25.65;60.68;100533.38;10436957;28;20076;-86
2023/11/24 11:06:04;;;;;;;7.25;3.08;;;;;;;25.83;63.26;100536.97;10448062;28;20354;-90
2023/11/24 11:11:56;;;;;;;21.08;16.40;;;;;;;26.01;67.33;100512.53;10439346;28;20405;-89
2023/11/24 11:17:25;;;;;;;11.93;7.40;;;;;;;25.79;71.24;100507.38;10451747;28;20638;-88
2023/11/24 11:23:03;;;;;;;7.60;4.00;;;;;;;25.00;83.48;100502.31;10452082;28;20063;-88
2023/11/24 11:28:51;;;;;;;8.52;4.18;;;;;;;24.83;91.01;100494.97;10420040;28;20045;-86
2023/11/24 11:34:19;;;;;;;7.53;4.30;;;;;;;24.88;92.69;100483.94;10447826;28;20053;-87
2023/11/24 11:39:58;;;;;;;8.93;3.47;;;;;;;25.08;91.50;100483.00;10449331;28;20057;-82
2023/11/24 11:45:29;;;;;;;9.13;5.50;;;;;;;24.99;93.02;100485.22;10445327;28;20103;-85
2023/11/24 11:51:01;;;;;;;9.02;4.28;;;;;;;24.91;99.43;100464.94;10451551;28;20047;-88
2023/11/24 11:56:31;;;;;;;16.08;8.57;;;;;;;25.17;99.14;100456.44;10429800;28;20041;-87
2023/11/24 12:01:59;;;;;;;13.65;5.63;;;;;;;25.17;100.00;100429.41;10449481;28;20048;-85
2023/11/24 12:07:26;;;;;;;11.02;5.95;;;;;;;25.83;98.67;100423.34;10436530;28;20045;-85
2023/11/24 12:12:52;;;;;;;6.32;3.50;;;;;;;26.32;89.46;100424.34;10445295;28;20048;-81
2023/11/24 12:18:20;;;;;;;8.03;2.93;;;;;;;26.45;82.58;100420.00;10444382;28;20118;-84
2023/11/24 12:23:43;;;;;;;7.22;3.50;;;;;;;26.90;77.85;100412.03;10449903;28;20099;-86
2023/11/24 12:29:13;;;;;;;9.40;3.45;;;;;;;27.16;75.28;100415.06;10441472;28;20049;-84
2023/11/24 12:34:41;;;;;;;4.90;2.65;;;;;;;27.01;72.18;100399.69;10447419;28;20048;-82
2023/11/24 12:40:09;;;;;;;7.40;3.10;;;;;;;25.94;75.48;100399.31;10452646;28;20072;-82
2023/11/24 12:45:40;;;;;;;7.13;3.15;;;;;;;25.50;80.36;100383.56;10433822;28;20064;-84
2023/11/24 12:51:05;;;;;;;7.28;3.20;;;;;;;25.10;84.26;100371.22;10442901;28;20064;-81
2023/11/24 12:56:29;;;;;;;6.85;2.90;;;;;;;25.23;82.56;100380.47;10434551;28;20045;-81
2023/11/24 13:01:57;;;;;;;7.82;3.83;;;;;;;25.09;86.41;100384.81;10445099;28;20049;-85
2023/11/24 13:07:21;;;;;;;10.27;3.92;;;;;;;25.15;88.34;100373.69;10430098;28;20041;-82
2023/11/24 13:12:46;;;;;;;4.68;2.92;;;;;;;25.22;89.79;100378.72;10448642;28;20041;-87
2023/11/24 13:18:11;;;;;;;6.95;2.78;;;;;;;25.36;86.90;100365.38;10434282;28;20056;-90
2023/11/24 13:23:40;;;;;;;5.88;2.75;;;;;;;25.46;83.12;100365.78;10443871;28;20551;-87
2023/11/24 13:29:03;;;;;;;4.83;2.80;;;;;;;25.05;84.05;100369.72;10406568;28;20045;-89
2023/11/24 13:34:28;;;;;;;6.82;2.95;;;;;;;25.02;82.71;100370.72;10439935;28;20351;-88
2023/11/24 13:39:52;;;;;;;5.03;2.90;;;;;;;24.62;83.25;100363.69;10451329;28;20095;-86
2023/11/24 13:45:16;;;;;;;6.75;3.20;;;;;;;24.60;87.99;100366.50;10449130;28;20052;-86
2023/11/24 13:50:41;;;;;;;7.85;3.50;;;;;;;24.63;89.96;100355.53;10441766;28;20048;-86
2023/11/24 13:56:05;;;;;;;7.05;2.72;;;;;;;24.60;91.96;100363.78;10450001;28;20085;-86
2023/11/24 14:01:29;;;;;;;8.38;3.15;;;;;;;24.39;95.80;100372.03;10451286;28;20049;-87
2023/11/24 14:06:54;;;;;;;5.97;3.03;;;;;;;24.05;99.07;100370.88;10457132;28;20048;-90
2023/11/24 14:12:21;;;;;;;7.72;3.20;;;;;;;24.03;100.00;100370.06;10455867;28;20064;-87
2023/11/24 14:17:44;;;;;;;13.38;4.28;;;;;;;23.96;100.00;100365.88;10443446;28;20130;-84
2023/11/24 14:23:13;;;;;;;9.68;3.83;;;;;;;23.79;100.00;100358.59;10453499;28;20049;-85
2023/11/24 14:28:36;;;;;;;4.95;2.58;;;;;;;23.41;100.00;100356.69;10454445;28;20049;-84
2023/11/24 14:34:00;;;;;;;7.55;2.72;;;;;;;23.10;100.00;100348.19;10452796;28;20052;-83
2023/11/24 14:39:26;;;;;;;13.60;5.68;;;;;;;23.02;100.00;100340.44;10453770;28;20045;-82
2023/11/24 14:44:49;;;;;;;9.48;4.85;;;;;;;22.85;100.00;100348.31;10452884;28;20041;-86
2023/11/24 14:50:12;;;;;;;11.05;7.63;;;;;;;22.60;100.00;100334.97;10451693;28;20136;-81
2023/11/24 14:55:37;;;;;;;9.98;6.40;;;;;;;22.34;100.00;100336.00;10450885;28;20140;-81
2023/11/24 15:01:02;;;;;;;55.63;39.33;;;;;;;22.10;100.00;100337.84;10452854;28;20127;-86
2023/11/24 15:06:27;;;;;;;12.45;9.63;;;;;;;21.86;100.00;100339.59;10467116;28;20389;-86
2023/11/24 15:11:52;;;;;;;35.67;25.80;;;;;;;21.42;100.00;100325.13;10452428;28;20076;-88
2023/11/24 15:17:16;;;;;;;30.08;17.25;;;;;;;21.08;100.00;100332.56;10433794;28;20049;-84
2023/11/24 15:22:41;;;;;;;49.03;31.55;;;;;;;20.78;100.00;100330.94;10448860;28;20041;-87
2023/11/24 15:28:11;;;;;;;43.15;19.15;;;;;;;20.51;100.00;100320.19;10440239;28;20075;-84
2023/11/24 15:33:35;;;;;;;48.75;19.30;;;;;;;20.34;100.00;100324.34;10435996;28;20429;-86
2023/11/24 15:39:00;;;;;;;16.05;8.00;;;;;;;20.19;100.00;100329.22;10450814;28;20041;-85
2023/11/24 15:44:27;;;;;;;19.20;7.65;;;;;;;20.01;100.00;100323.53;10455607;28;20465;-87
2023/11/24 15:49:52;;;;;;;20.75;12.88;;;;;;;19.64;100.00;100326.38;10447775;28;20045;-86
2023/11/24 15:55:23;;;;;;;28.02;15.52;;;;;;;19.46;100.00;100327.78;10433952;28;20069;-85
2023/11/24 16:00:49;;;;;;;40.58;23.48;;;;;;;19.24;100.00;100326.56;10447717;28;20069;-83
2023/11/24 16:06:17;;;;;;;30.42;15.35;;;;;;;19.07;100.00;100324.38;10444736;28;20057;-88
2023/11/24 16:11:45;;;;;;;29.13;12.27;;;;;;;18.86;100.00;100325.78;10449553;28;20472;-86
2023/11/24 16:17:10;;;;;;;20.45;9.75;;;;;;;18.69;100.00;100328.91;10440037;28;20059;-84
2023/11/24 16:22:33;;;;;;;32.78;15.07;;;;;;;18.86;100.00;100325.78;10430997;28;20080;-86
2023/11/24 16:27:57;;;;;;;33.08;13.93;;;;;;;18.90;100.00;100324.81;10450084;28;20048;-84
2023/11/24 16:33:22;;;;;;;16.00;7.85;;;;;;;18.62;100.00;100324.63;10434279;28;20072;-85
2023/11/24 16:38:46;;;;;;;8.32;5.65;;;;;;;18.50;100.00;100319.53;10448324;28;20040;-86
2023/11/24 16:44:09;;;;;;;32.05;12.05;;;;;;;18.55;100.00;100319.41;10449030;28;20060;-87
2023/11/24 16:49:34;;;;;;;30.67;13.25;;;;;;;18.68;100.00;100312.88;10452077;28;20080;-86
2023/11/24 16:54:57;;;;;;;12.60;6.63;;;;;;;18.35;100.00;100306.53;10447587;28;20060;-89
2023/11/24 17:00:21;;;;;;;11.88;6.15;;;;;;;18.09;100.00;100301.78;10437235;28;20081;-85
2023/11/24 17:05:47;;;;;;;8.27;5.40;;;;;;;17.93;100.00;100303.91;10448137;28;20052;-85
2023/11/24 17:11:10;;;;;;;27.80;9.95;;;;;;;17.96;100.00;100291.41;10454108;28;20515;-83
2023/11/24 17:16:35;;;;;;;31.45;12.93;;;;;;;17.71;100.00;100286.59;10447984;28;20053;-81
2023/11/24 17:22:00;;;;;;;11.27;6.22;;;;;;;17.41;100.00;100282.72;10436799;28;20041;-86
2023/11/24 17:27:24;;;;;;;11.45;5.20;;;;;;;17.62;100.00;100288.56;10442514;28;20106;-83
2023/11/24 17:32:47;;;;;;;64.85;20.52;;;;;;;17.85;100.00;100273.81;10446751;28;20052;-90
2023/11/24 17:38:13;;;;;;;28.75;11.52;;;;;;;17.89;100.00;100282.66;10457806;28;20076;-87
2023/11/24 17:43:36;;;;;;;30.50;12.52;;;;;;;17.91;100.00;100264.81;10436311;28;20056;-82
2023/11/24 17:48:59;;;;;;;23.98;13.02;;;;;;;18.13;100.00;100263.38;10444771;28;20052;-85
2023/11/24 17:54:25;;;;;;;23.02;14.77;;;;;;;18.45;100.00;100251.91;10439001;28;20049;-86
2023/11/24 17:59:49;;;;;;;15.88;8.13;;;;;;;18.78;100.00;100250.22;10448899;28;20049;-82
2023/11/24 18:05:14;;;;;;;25.63;18.27;;;;;;;18.84;100.00;100250.03;10419596;28;20075;-85
2023/11/24 18:10:39;;;;;;;18.58;9.07;;;;;;;19.17;100.00;100245.59;10440135;28;20053;-83
2023/11/24 18:16:02;;;;;;;10.90;6.50;;;;;;;19.29;100.00;100239.03;10442959;28;20049;-86
2023/11/24 18:21:27;;;;;;;8.93;7.03;;;;;;;19.43;100.00;100242.16;10435188;28;20049;-85
2023/11/24 18:26:52;;;;;;;14.25;10.07;;;;;;;19.50;100.00;100244.66;10446696;28;20041;-87
2023/11/24 18:32:15;;;;;;;16.05;6.75;;;;;;;19.56;100.00;100234.72;10439111;28;20245;-84
2023/11/24 18:37:39;;;;;;;8.88;6.15;;;;;;;19.40;100.00;100231.56;10451598;28;20052;-87
2023/11/24 18:43:04;;;;;;;15.32;8.23;;;;;;;19.05;100.00;100238.78;10428306;28;20053;-84
2023/11/24 18:48:27;;;;;;;12.65;5.70;;;;;;;19.10;100.00;100244.88;10440086;28;20508;-85
2023/11/24 18:53:51;;;;;;;16.05;7.22;;;;;;;19.35;100.00;100241.53;10442327;28;20049;-85
2023/11/24 18:59:16;;;;;;;11.88;5.15;;;;;;;19.41;100.00;100242.22;10466368;28;20060;-87
2023/11/24 19:04:41;;;;;;;12.45;6.32;;;;;;;19.51;100.00;100229.47;10454871;28;20052;-86
2023/11/24 19:10:05;;;;;;;15.82;7.57;;;;;;;19.67;100.00;100237.94;10455365;28;20075;-87
2023/11/24 19:15:29;;;;;;;11.68;6.80;;;;;;;19.81;100.00;100238.41;10456073;28;20485;-88
2023/11/24 19:20:54;;;;;;;12.43;5.68;;;;;;;19.86;100.00;100245.38;10459441;28;20072;-86
2023/11/24 19:26:18;;;;;;;10.77;6.78;;;;;;;20.06;100.00;100242.06;10445691;28;20132;-86
2023/11/24 19:31:42;;;;;;;9.13;6.70;;;;;;;20.13;100.00;100230.22;10446542;28;20041;-82
2023/11/24 19:37:06;;;;;;;10.55;6.28;;;;;;;20.14;100.00;100231.09;10423470;28;20111;-82
2023/11/24 19:42:30;;;;;;;10.98;5.63;;;;;;;20.18;100.00;100211.31;10439714;28;20049;-86
2023/11/24 19:47:54;;;;;;;14.00;5.95;;;;;;;20.21;100.00;100206.75;10435433;28;20045;-82
2023/11/24 19:53:21;;;;;;;9.75;5.38;;;;;;;20.20;100.00;100193.38;10435233;28;20100;-84
2023/11/24 19:58:44;;;;;;;10.95;6.20;;;;;;;20.08;100.00;100192.00;10436991;28;20059;-87
2023/11/24 20:04:10;;;;;;;11.93;7.60;;;;;;;19.88;100.00;100192.63;10443136;28;20045;-80
2023/11/24 20:09:36;;;;;;;10.95;5.65;;;;;;;19.78;100.00;100185.78;10416894;28;20520;-85
2023/11/24 20:14:59;;;;;;;8.63;5.50;;;;;;;19.79;100.00;100173.28;10437987;28;20410;-85
2023/11/24 20:20:24;;;;;;;13.10;8.07;;;;;;;19.66;100.00;100159.41;10438067;28;20044;-86
2023/11/24 20:25:47;;;;;;;7.43;5.32;;;;;;;19.53;100.00;100159.81;10428175;28;20069;-82
2023/11/24 20:31:12;;;;;;;10.45;6.68;;;;;;;19.46;100.00;100165.34;10405851;28;20061;-84
2023/11/24 20:36:46;;;;;;;12.48;5.20;;;;;;;19.56;100.00;100168.63;10446281;28;20049;-86
2023/11/24 20:42:09;;;;;;;12.05;6.55;;;;;;;19.46;100.00;100167.16;10447407;28;20048;-84
2023/11/24 20:47:33;;;;;;;8.30;5.63;;;;;;;19.46;100.00;100160.00;10454399;28;20063;-84
2023/11/24 20:52:58;;;;;;;7.47;4.40;;;;;;;19.58;100.00;100156.06;10455605;28;20045;-84
2023/11/24 20:58:21;;;;;;;9.82;4.18;;;;;;;19.63;100.00;100147.88;10443089;28;20073;-85
2023/11/24 21:03:45;;;;;;;10.43;5.90;;;;;;;19.87;100.00;100120.34;10453159;28;20136;-86
2023/11/24 21:09:12;;;;;;;9.15;4.10;;;;;;;19.94;100.00;100115.66;10454505;28;20045;-84
2023/11/24 21:14:36;;;;;;;9.35;5.03;;;;;;;20.03;100.00;100101.94;10450711;28;20114;-85
2023/11/24 21:20:00;;;;;;;9.93;5.30;;;;;;;19.86;100.00;100089.09;10457017;28;20052;-84
2023/11/24 21:25:24;;;;;;;10.60;6.05;;;;;;;19.72;100.00;100081.53;10457429;28;20401;-86
2023/11/24 21:30:50;;;;;;;6.90;5.20;;;;;;;19.89;100.00;100076.47;10449306;28;20109;-85
2023/11/24 21:36:15;;;;;;;7.75;5.40;;;;;;;19.94;100.00;100070.97;10454423;28;20102;-85
2023/11/24 21:41:41;;;;;;;9.32;6.07;;;;;;;20.01;100.00;100069.84;10455278;28;20056;-85
2023/11/24 21:47:05;;;;;;;11.07;6.70;;;;;;;20.14;100.00;100076.53;10442760;28;20571;-86
2023/11/24 21:52:29;;;;;;;10.18;6.35;;;;;;;20.01;100.00;100059.13;10456266;28;20397;-85
2023/11/24 21:57:54;;;;;;;9.25;6.18;;;;;;;19.95;100.00;100059.34;10465008;28;20056;-85
2023/11/24 22:03:21;;;;;;;12.85;7.47;;;;;;;19.92;100.00;100055.88;10456924;28;20079;-85
2023/11/24 22:08:44;;;;;;;13.27;6.88;;;;;;;19.81;100.00;100035.69;10440200;28;20426;-85
2023/11/24 22:14:11;;;;;;;9.18;6.10;;;;;;;19.77;100.00;100030.47;10441683;28;20049;-85
2023/11/24 22:19:34;;;;;;;8.02;6.57;;;;;;;19.59;100.00;100015.03;10453644;28;20045;-85
2023/11/24 22:24:57;;;;;;;8.88;6.18;;;;;;;19.63;100.00;100019.34;10441043;28;20061;-85
2023/11/24 22:30:22;;;;;;;10.32;7.22;;;;;;;19.58;100.00;100024.84;10424057;28;20107;-85
2023/11/24 22:35:46;;;;;;;12.75;7.85;;;;;;;19.53;100.00;100018.78;10453714;28;20044;-87
2023/11/24 22:41:10;;;;;;;13.18;7.28;;;;;;;19.45;100.00;100005.63;10440385;28;20054;-85
2023/11/24 22:46:35;;;;;;;11.82;6.97;;;;;;;19.54;100.00;99998.25;10453897;28;20595;-85
2023/11/24 22:51:58;;;;;;;9.70;7.55;;;;;;;19.49;100.00;100001.09;10453047;28;20680;-85
2023/11/24 22:57:21;;;;;;;9.50;6.93;;;;;;;19.39;100.00;99992.44;10452757;28;20453;-85
2023/11/24 23:02:47;;;;;;;12.05;6.53;;;;;;;19.36;100.00;99980.97;10452166;28;20053;-85
2023/11/24 23:08:10;;;;;;;11.95;6.90;;;;;;;19.29;100.00;99972.25;10437297;28;20554;-86
2023/11/24 23:13:34;;;;;;;11.15;6.65;;;;;;;19.38;100.00;99961.22;10452577;28;20041;-84
2023/11/24 23:18:59;;;;;;;8.73;6.45;;;;;;;19.30;100.00;99932.97;10432114;28;20040;-84
2023/11/24 23:24:22;;;;;;;9.70;6.07;;;;;;;19.25;100.00;99916.19;10452748;28;20592;-85
2023/11/24 23:29:45;;;;;;;12.93;6.20;;;;;;;19.15;100.00;99896.91;10450146;28;21745;-85
2023/11/24 23:35:11;;;;;;;11.10;5.50;;;;;;;19.21;100.00;99891.34;10450774;28;20057;-84
2023/11/24 23:40:35;;;;;;;5.97;4.85;;;;;;;19.43;100.00;99887.00;10451244;28;20775;-85
2023/11/24 23:45:59;;;;;;;6.80;4.63;;;;;;;19.65;100.00;99884.47;10435408;28;20485;-86
2023/11/24 23:51:24;;;;;;;7.05;4.30;;;;;;;19.76;100.00;99871.56;10450732;28;20045;-84
2023/11/24 23:56:47;;;;;;;8.35;3.80;;;;;;;19.86;100.00;99864.97;10450500;28;20163;-86
